Terminal Aerodrome Forecast
Issued by NWS

Home | Current Version | Previous Version | Text Only | Print | Product List | Glossary On
Versions: 1 2 3 4 5 6 7 8 9 10 11 12 13 14 15 16 17 18 19 20 21 22
000
FTAK31 PAJN 312321
TAFAPG
TAF
PAPG 312321Z 0100/0124 06005KT P6SM -SHRA SCT025 BKN050
     FM010500 VRB03KT P6SM VCSH BKN025 OVC060
     FM011200 VRB03KT P6SM VCFG FEW005 BKN100
     FM011800 06006KT P6SM SCT050 SCT100
      AMD LTD TO CLD VIS AND WIND 0106/0115=

USA.gov is the U.S. government's official web portal to all federal, state and local government web resources and services.